createdAt,value
2022-08-14T00:00:55.470Z,20.65
2022-08-14T00:04:02.599Z,20.69
2022-08-14T00:07:24.881Z,20.63
2022-08-14T00:10:50.433Z,20.59
2022-08-14T00:13:52.972Z,20.55
2022-08-14T00:17:07.063Z,20.48
2022-08-14T00:20:09.802Z,20.47
2022-08-14T00:23:16.534Z,20.41
2022-08-14T00:26:23.127Z,20.40
2022-08-14T00:29:27.093Z,20.45
2022-08-14T00:32:53.122Z,20.44
2022-08-14T00:36:36.866Z,20.41
2022-08-14T00:39:18.047Z,20.33
2022-08-14T00:42:52.533Z,20.34
2022-08-14T00:45:43.390Z,20.28
2022-08-14T00:48:57.867Z,20.30
2022-08-14T00:52:00.702Z,20.33
2022-08-14T00:55:03.592Z,20.40
2022-08-14T00:58:27.674Z,20.40
2022-08-14T01:01:36.158Z,20.40
2022-08-14T01:04:54.025Z,20.34
2022-08-14T01:08:00.891Z,20.30
2022-08-14T01:11:05.947Z,20.24
2022-08-14T01:14:25.514Z,20.23
2022-08-14T01:17:50.831Z,20.22
2022-08-14T01:21:08.984Z,20.20
2022-08-14T01:24:22.967Z,20.15
2022-08-14T01:27:32.058Z,20.10
2022-08-14T01:30:57.492Z,20.04
2022-08-14T01:35:20.191Z,20.04
2022-08-14T01:37:24.937Z,20.00
2022-08-14T01:40:40.865Z,19.94
2022-08-14T01:43:56.745Z,19.93
2022-08-14T01:47:01.171Z,19.94
2022-08-14T01:50:05.973Z,19.95
2022-08-14T01:53:08.580Z,19.93
2022-08-14T01:56:18.236Z,19.89
2022-08-14T01:59:21.979Z,19.87
2022-08-14T02:02:23.878Z,19.87
2022-08-14T02:05:34.982Z,19.84
2022-08-14T02:08:52.397Z,19.85
2022-08-14T02:11:57.010Z,19.84
2022-08-14T02:15:01.429Z,19.80
2022-08-14T02:18:04.474Z,19.75
2022-08-14T02:21:06.313Z,19.74
2022-08-14T02:24:09.393Z,19.72
2022-08-14T02:28:24.312Z,19.73
2022-08-14T02:30:55.418Z,19.72
2022-08-14T02:33:57.564Z,19.75
2022-08-14T02:37:06.642Z,19.76
2022-08-14T02:40:09.419Z,19.75
2022-08-14T02:43:14.006Z,19.70
2022-08-14T02:46:20.386Z,19.67
2022-08-14T02:49:34.302Z,19.66
2022-08-14T02:52:57.117Z,19.63
2022-08-14T02:56:02.566Z,19.59
2022-08-14T02:59:09.590Z,19.58
2022-08-14T03:02:48.760Z,19.55
2022-08-14T03:05:37.038Z,19.57
2022-08-14T03:08:46.064Z,19.57
2022-08-14T03:11:48.391Z,19.53
2022-08-14T03:14:56.435Z,19.49
2022-08-14T03:17:58.723Z,19.48
2022-08-14T03:21:01.962Z,19.47
2022-08-14T03:24:21.669Z,19.44
2022-08-14T03:27:26.552Z,19.39
2022-08-14T03:30:41.149Z,19.37
2022-08-14T03:33:44.035Z,19.33
2022-08-14T03:37:39.185Z,19.31
2022-08-14T03:40:11.326Z,19.30
2022-08-14T03:43:19.221Z,19.35
2022-08-14T03:46:52.166Z,19.35
2022-08-14T03:49:49.922Z,19.34
2022-08-14T03:52:57.244Z,19.34
2022-08-14T03:56:02.494Z,19.39
2022-08-14T03:59:08.185Z,19.35
2022-08-14T04:02:32.923Z,19.32
2022-08-14T04:05:43.305Z,19.27
2022-08-14T04:08:50.474Z,19.22
2022-08-14T04:11:52.099Z,19.20
2022-08-14T04:14:53.923Z,19.15
2022-08-14T04:17:57.485Z,19.07
2022-08-14T04:20:59.434Z,19.04
2022-08-14T04:24:02.247Z,19.05
2022-08-14T04:27:04.108Z,19.05
2022-08-14T04:30:06.554Z,19.09
2022-08-14T04:33:18.425Z,19.12
2022-08-14T04:36:23.926Z,19.16
2022-08-14T04:39:46.364Z,19.21
2022-08-14T04:43:14.333Z,19.22
2022-08-14T04:46:55.547Z,19.22
2022-08-14T04:49:57.022Z,19.28
2022-08-14T04:52:59.541Z,19.29
2022-08-14T04:56:10.448Z,19.32
2022-08-14T04:59:26.071Z,19.33
2022-08-14T05:02:28.888Z,19.35
2022-08-14T05:05:34.273Z,19.39
2022-08-14T05:08:53.960Z,19.42
2022-08-14T05:13:01.052Z,19.49
2022-08-14T05:15:21.575Z,19.53
2022-08-14T05:18:52.954Z,19.59
2022-08-14T05:21:58.099Z,19.61
2022-08-14T05:25:04.346Z,19.66
2022-08-14T05:28:11.289Z,19.69
2022-08-14T05:31:20.654Z,19.72
2022-08-14T05:34:28.782Z,19.75
2022-08-14T05:37:34.643Z,19.79
2022-08-14T05:40:36.413Z,19.85
2022-08-14T05:43:41.400Z,19.89
2022-08-14T05:46:43.611Z,19.93
2022-08-14T05:49:48.679Z,19.97
2022-08-14T05:52:52.029Z,20.03
2022-08-14T05:55:55.378Z,20.08
2022-08-14T05:58:57.079Z,20.12
2022-08-14T06:02:02.372Z,20.20
2022-08-14T06:05:07.958Z,20.25
2022-08-14T06:08:36.730Z,20.30
2022-08-14T06:11:40.523Z,20.39
2022-08-14T06:14:43.189Z,20.46
2022-08-14T06:17:47.033Z,20.51
2022-08-14T06:20:57.613Z,20.59
2022-08-14T06:24:00.933Z,20.64
2022-08-14T06:27:04.418Z,20.72
2022-08-14T06:30:09.110Z,20.80
2022-08-14T06:33:13.282Z,20.87
2022-08-14T06:36:18.413Z,20.92
2022-08-14T06:39:36.454Z,21.01
2022-08-14T06:42:39.735Z,21.07
2022-08-14T06:45:50.375Z,21.16
2022-08-14T06:48:55.937Z,21.19
2022-08-14T06:51:58.137Z,21.28
2022-08-14T06:55:01.131Z,21.38
2022-08-14T06:58:03.316Z,21.47
2022-08-14T07:01:27.553Z,21.58
2022-08-14T07:04:49.173Z,21.62
2022-08-14T07:07:53.285Z,21.70
2022-08-14T07:10:56.969Z,21.74
2022-08-14T07:14:01.306Z,21.75
2022-08-14T07:17:06.099Z,21.84
2022-08-14T07:20:09.881Z,21.87
2022-08-14T07:23:20.820Z,21.91
2022-08-14T07:26:29.527Z,22.01
2022-08-14T07:29:31.304Z,22.12
2022-08-14T07:32:34.048Z,22.20
2022-08-14T07:35:42.997Z,22.41
2022-08-14T07:38:58.508Z,22.55
2022-08-14T07:42:02.013Z,22.61
2022-08-14T07:45:03.826Z,22.67
2022-08-14T07:48:06.353Z,22.71
2022-08-14T07:51:11.480Z,22.74
2022-08-14T07:54:16.546Z,22.83
2022-08-14T07:57:28.052Z,22.81
2022-08-14T08:00:33.292Z,22.94
2022-08-14T08:03:38.841Z,22.99
2022-08-14T08:06:40.692Z,23.05
2022-08-14T08:09:45.902Z,23.10
2022-08-14T08:12:49.638Z,23.20
2022-08-14T08:15:53.860Z,23.28
2022-08-14T08:19:01.765Z,23.34
2022-08-14T08:22:07.545Z,23.43
2022-08-14T08:25:13.405Z,23.54
2022-08-14T08:28:22.032Z,23.64
2022-08-14T08:31:32.679Z,23.72
2022-08-14T08:34:47.591Z,23.69
2022-08-14T08:37:53.763Z,23.74
2022-08-14T08:41:03.643Z,23.69
2022-08-14T08:44:17.463Z,23.77
2022-08-14T08:47:37.995Z,24.02
2022-08-14T08:53:40.547Z,24.02
2022-08-14T08:56:44.873Z,24.09
2022-08-14T08:59:54.714Z,24.33
2022-08-14T09:02:58.267Z,24.29
2022-08-14T09:06:03.240Z,24.18
2022-08-14T09:09:05.108Z,24.05
2022-08-14T09:12:14.037Z,24.12
2022-08-14T09:15:18.531Z,24.24
2022-08-14T09:18:27.280Z,24.44
2022-08-14T09:21:31.251Z,24.51
2022-08-14T09:24:35.432Z,24.65
2022-08-14T09:27:45.742Z,24.76
2022-08-14T09:30:52.024Z,24.77
2022-08-14T09:33:59.355Z,24.77
2022-08-14T09:37:28.872Z,24.73
2022-08-14T09:40:39.077Z,24.76
2022-08-14T09:43:45.563Z,24.74
2022-08-14T09:46:56.638Z,24.81
2022-08-14T09:49:59.883Z,24.93
2022-08-14T09:53:05.164Z,24.88
2022-08-14T09:56:10.133Z,24.89
2022-08-14T09:59:16.674Z,25.00
2022-08-14T10:02:24.523Z,25.11
2022-08-14T10:05:31.054Z,25.15
2022-08-14T10:08:40.734Z,25.35
2022-08-14T10:11:58.687Z,25.37
2022-08-14T10:15:01.057Z,25.57
2022-08-14T10:18:17.320Z,25.62
2022-08-14T10:21:20.068Z,25.60
2022-08-14T10:24:36.391Z,25.69
2022-08-14T10:27:38.721Z,25.97
2022-08-14T10:30:40.899Z,26.17
2022-08-14T10:33:50.792Z,26.26
2022-08-14T10:37:02.785Z,26.38
2022-08-14T10:40:36.766Z,26.24
2022-08-14T10:43:31.927Z,26.27
2022-08-14T10:47:39.555Z,26.52
2022-08-14T10:50:03.628Z,26.66
2022-08-14T10:53:06.634Z,26.84
2022-08-14T10:56:21.756Z,27.07
2022-08-14T10:59:43.196Z,27.07
2022-08-14T11:02:55.246Z,27.06
2022-08-14T11:06:01.241Z,27.00
2022-08-14T11:09:11.513Z,27.25
2022-08-14T11:12:33.928Z,27.38
2022-08-14T11:15:35.876Z,27.37
2022-08-14T11:18:40.391Z,27.38
2022-08-14T11:21:45.664Z,27.31
2022-08-14T11:24:54.984Z,26.89
2022-08-14T11:27:58.774Z,26.86
2022-08-14T11:31:03.567Z,26.80
2022-08-14T11:34:05.532Z,27.11
2022-08-14T11:37:19.130Z,27.37
2022-08-14T11:40:29.746Z,27.68
2022-08-14T11:43:35.013Z,27.72
2022-08-14T11:46:37.958Z,27.33
2022-08-14T11:49:40.360Z,27.54
2022-08-14T11:52:45.123Z,27.85
2022-08-14T11:55:57.269Z,27.99
2022-08-14T11:59:00.157Z,28.14
2022-08-14T12:03:00.601Z,28.14
2022-08-14T12:05:39.763Z,28.44
2022-08-14T12:08:43.437Z,28.45
2022-08-14T12:11:47.593Z,28.44
2022-08-14T12:14:57.326Z,28.55
2022-08-14T12:18:01.171Z,28.69
2022-08-14T12:21:19.989Z,28.69
2022-08-14T12:24:36.270Z,28.44
2022-08-14T12:27:41.602Z,28.57
2022-08-14T12:30:44.653Z,28.29
2022-08-14T12:33:56.353Z,28.11
2022-08-14T12:37:06.050Z,28.25
2022-08-14T12:40:20.744Z,28.48
2022-08-14T12:43:22.697Z,28.62
2022-08-14T12:46:26.942Z,28.40
2022-08-14T12:49:29.931Z,28.43
2022-08-14T12:52:41.542Z,28.30
2022-08-14T12:56:18.618Z,28.46
2022-08-14T12:59:29.635Z,28.77
2022-08-14T13:02:37.534Z,28.89
2022-08-14T13:05:40.288Z,29.04
2022-08-14T13:08:53.277Z,29.18
2022-08-14T13:11:59.236Z,29.05
2022-08-14T13:15:19.350Z,28.68
2022-08-14T13:18:24.348Z,28.37
2022-08-14T13:21:27.014Z,28.11
2022-08-14T13:24:33.398Z,27.98
2022-08-14T13:27:39.185Z,28.07
2022-08-14T13:30:45.097Z,28.32
2022-08-14T13:33:46.736Z,28.34
2022-08-14T13:36:54.238Z,28.40
2022-08-14T13:40:01.002Z,28.58
2022-08-14T13:43:08.897Z,28.47
2022-08-14T13:46:11.486Z,28.09
2022-08-14T13:49:14.807Z,27.84
2022-08-14T13:52:52.485Z,27.71
2022-08-14T13:55:40.575Z,27.57
2022-08-14T13:58:47.169Z,27.42
2022-08-14T14:01:51.899Z,27.31
2022-08-14T14:04:58.145Z,27.31
2022-08-14T14:08:04.711Z,27.40
2022-08-14T14:11:09.720Z,27.36
2022-08-14T14:14:45.123Z,27.32
2022-08-14T14:17:36.213Z,27.30
2022-08-14T14:20:43.211Z,27.27
2022-08-14T14:23:47.074Z,27.19
2022-08-14T14:26:50.114Z,27.17
2022-08-14T14:29:58.864Z,27.17
2022-08-14T14:33:06.683Z,27.57
2022-08-14T14:36:21.020Z,27.86
2022-08-14T14:39:37.835Z,28.23
2022-08-14T14:42:55.749Z,28.39
2022-08-14T14:45:59.021Z,28.45
2022-08-14T14:49:01.314Z,28.27
2022-08-14T14:52:07.553Z,28.05
2022-08-14T14:55:12.374Z,27.86
2022-08-14T14:58:20.484Z,27.75
2022-08-14T15:01:24.034Z,27.72
2022-08-14T15:04:26.185Z,27.69
2022-08-14T15:07:29.802Z,27.70
2022-08-14T15:10:37.893Z,27.69
2022-08-14T15:13:43.211Z,27.70
2022-08-14T15:16:59.140Z,27.57
2022-08-14T15:20:04.106Z,27.36
2022-08-14T15:23:12.163Z,27.22
2022-08-14T15:26:24.055Z,27.19
2022-08-14T15:29:38.742Z,27.22
2022-08-14T15:32:46.304Z,27.43
2022-08-14T15:35:49.386Z,27.62
2022-08-14T15:38:51.806Z,27.80
2022-08-14T15:41:53.712Z,27.90
2022-08-14T15:45:02.418Z,27.88
2022-08-14T15:48:06.550Z,27.88
2022-08-14T15:51:14.156Z,27.67
2022-08-14T15:54:17.962Z,27.64
2022-08-14T15:57:23.607Z,27.73
2022-08-14T16:00:49.388Z,27.79
2022-08-14T16:03:53.696Z,27.93
2022-08-14T16:06:59.581Z,28.02
2022-08-14T16:10:28.846Z,28.00
2022-08-14T16:13:47.810Z,28.00
2022-08-14T16:16:59.940Z,27.95
2022-08-14T16:20:05.318Z,27.92
2022-08-14T16:23:11.470Z,27.87
2022-08-14T16:26:19.322Z,27.77
2022-08-14T16:29:21.195Z,27.70
2022-08-14T16:32:35.825Z,27.67
2022-08-14T16:35:55.639Z,27.66
2022-08-14T16:39:00.041Z,27.69
2022-08-14T16:42:38.115Z,27.68
2022-08-14T16:45:26.234Z,27.57
2022-08-14T16:48:55.061Z,27.41
2022-08-14T16:51:55.234Z,27.28
2022-08-14T16:55:01.547Z,27.27
2022-08-14T16:58:03.154Z,27.26
2022-08-14T17:01:22.600Z,27.22
2022-08-14T17:04:31.908Z,27.17
2022-08-14T17:07:35.338Z,27.11
2022-08-14T17:11:00.008Z,27.06
2022-08-14T17:14:10.494Z,27.02
2022-08-14T17:17:12.524Z,26.98
2022-08-14T17:20:54.802Z,26.97
2022-08-14T17:23:42.841Z,26.96
2022-08-14T17:26:45.671Z,26.95
2022-08-14T17:29:56.661Z,26.93
2022-08-14T17:33:03.312Z,26.90
2022-08-14T17:36:10.333Z,26.83
2022-08-14T17:39:24.442Z,26.78
2022-08-14T17:42:41.304Z,26.74
2022-08-14T17:45:45.506Z,26.71
2022-08-14T17:49:16.254Z,26.66
2022-08-14T17:52:33.932Z,26.61
2022-08-14T17:56:02.115Z,26.55
2022-08-14T17:59:03.964Z,26.48
2022-08-14T18:02:07.054Z,26.42
2022-08-14T18:05:10.576Z,26.34
2022-08-14T18:08:34.039Z,26.26
2022-08-14T18:11:45.909Z,26.17
2022-08-14T18:14:53.022Z,26.09
2022-08-14T18:17:54.972Z,26.00
2022-08-14T18:21:39.605Z,25.92
2022-08-14T18:24:29.294Z,25.87
2022-08-14T18:27:36.143Z,25.81
2022-08-14T18:30:40.355Z,25.73
2022-08-14T18:34:07.142Z,25.66
2022-08-14T18:37:21.214Z,25.60
2022-08-14T18:40:34.522Z,25.55
2022-08-14T18:43:42.919Z,25.49
2022-08-14T18:47:04.688Z,25.44
2022-08-14T18:50:26.064Z,25.39
2022-08-14T18:53:33.945Z,25.36
2022-08-14T18:56:57.687Z,25.31
2022-08-14T19:00:22.182Z,25.28
2022-08-14T19:03:55.411Z,25.26
2022-08-14T19:07:16.317Z,25.30
2022-08-14T19:10:31.905Z,25.31
2022-08-14T19:13:48.685Z,25.30
2022-08-14T19:16:55.928Z,25.25
2022-08-14T19:20:04.177Z,25.23
2022-08-14T19:23:14.453Z,25.21
2022-08-14T19:26:37.657Z,25.21
2022-08-14T19:29:47.635Z,25.18
2022-08-14T19:32:58.844Z,25.18
2022-08-14T19:36:31.484Z,25.12
2022-08-14T19:39:53.996Z,25.15
2022-08-14T19:42:59.340Z,25.09
2022-08-14T19:46:01.549Z,25.07
2022-08-14T19:49:07.199Z,25.04
2022-08-14T19:52:20.713Z,25.05
2022-08-14T19:55:34.737Z,25.03
2022-08-14T19:58:37.752Z,25.05
2022-08-14T20:01:56.406Z,25.05
2022-08-14T20:05:03.887Z,25.04
2022-08-14T20:08:07.877Z,25.06
2022-08-14T20:12:00.455Z,25.07
2022-08-14T20:14:53.324Z,25.06
2022-08-14T20:17:55.204Z,25.06
2022-08-14T20:20:58.813Z,25.06
2022-08-14T20:24:30.397Z,25.04
2022-08-14T20:27:44.064Z,25.04
2022-08-14T20:30:48.632Z,25.03
2022-08-14T20:34:07.982Z,25.02
2022-08-14T20:37:27.062Z,25.00
2022-08-14T20:40:31.965Z,24.97
2022-08-14T20:44:06.861Z,24.92
2022-08-14T20:47:13.765Z,24.83
2022-08-14T20:50:22.379Z,24.77
2022-08-14T20:53:33.930Z,24.70
2022-08-14T20:56:40.659Z,24.65
2022-08-14T20:59:43.993Z,24.61
2022-08-14T21:02:51.036Z,24.51
2022-08-14T21:05:56.672Z,24.30
2022-08-14T21:09:02.315Z,24.19
2022-08-14T21:12:05.023Z,24.07
2022-08-14T21:15:10.109Z,24.05
2022-08-14T21:18:19.555Z,23.99
2022-08-14T21:21:22.579Z,23.88
2022-08-14T21:24:39.625Z,23.80
2022-08-14T21:27:57.363Z,23.65
2022-08-14T21:31:01.087Z,23.56
2022-08-14T21:34:26.981Z,23.53
2022-08-14T21:37:29.907Z,23.49
2022-08-14T21:40:41.498Z,23.47
2022-08-14T21:43:45.070Z,23.46
2022-08-14T21:46:50.495Z,23.41
2022-08-14T21:49:53.662Z,23.37
2022-08-14T21:53:00.826Z,23.33
2022-08-14T21:56:03.286Z,23.32
2022-08-14T21:59:06.330Z,23.35
2022-08-14T22:02:10.475Z,23.38
2022-08-14T22:05:33.918Z,23.41
2022-08-14T22:08:36.642Z,23.46
2022-08-14T22:11:42.555Z,23.47
2022-08-14T22:14:45.446Z,23.45
2022-08-14T22:17:52.326Z,23.39
2022-08-14T22:20:58.052Z,23.28
2022-08-14T22:24:00.004Z,23.20
2022-08-14T22:27:03.224Z,23.13
2022-08-14T22:30:13.497Z,23.10
2022-08-14T22:33:22.072Z,23.04
2022-08-14T22:36:48.304Z,22.98
2022-08-14T22:40:48.331Z,22.84
2022-08-14T22:43:13.433Z,22.75
2022-08-14T22:46:20.549Z,22.71
2022-08-14T22:50:30.356Z,22.66
2022-08-14T22:52:49.895Z,22.62
2022-08-14T22:55:53.787Z,22.67
2022-08-14T22:58:56.373Z,22.80
2022-08-14T23:02:03.652Z,22.92
2022-08-14T23:05:06.362Z,22.95
2022-08-14T23:08:59.676Z,22.97
2022-08-14T23:11:39.960Z,22.89
2022-08-14T23:14:42.878Z,22.79
2022-08-14T23:17:44.737Z,22.70
2022-08-14T23:20:48.362Z,22.58
2022-08-14T23:23:55.222Z,22.33
2022-08-14T23:26:58.178Z,21.90
2022-08-14T23:30:00.499Z,21.75
2022-08-14T23:33:02.547Z,21.38
2022-08-14T23:36:31.392Z,21.21
2022-08-14T23:39:31.446Z,21.07
2022-08-14T23:42:40.113Z,20.99
2022-08-14T23:45:47.994Z,20.94
2022-08-14T23:48:50.534Z,20.99
2022-08-14T23:51:59.847Z,20.97
2022-08-14T23:55:15.630Z,21.00
2022-08-14T23:58:29.012Z,21.00
